sensor_id;sensor_type;location;lat;lon;timestamp;P1;durP1;ratioP1;P2;durP2;ratioP2
26040;SDS011;13816;53.628;9.950;2023-03-16T00:01:19;8.33;;;2.97;;
26040;SDS011;13816;53.628;9.950;2023-03-16T00:03:46;8.67;;;3.20;;
26040;SDS011;13816;53.628;9.950;2023-03-16T00:06:12;10.80;;;2.90;;
26040;SDS011;13816;53.628;9.950;2023-03-16T00:11:09;11.50;;;2.87;;
26040;SDS011;13816;53.628;9.950;2023-03-16T00:13:36;17.50;;;4.13;;
26040;SDS011;13816;53.628;9.950;2023-03-16T00:16:02;7.80;;;3.43;;
26040;SDS011;13816;53.628;9.950;2023-03-16T00:18:29;9.07;;;3.33;;
26040;SDS011;13816;53.628;9.950;2023-03-16T00:20:59;12.27;;;3.83;;
26040;SDS011;13816;53.628;9.950;2023-03-16T00:23:29;6.37;;;3.00;;
26040;SDS011;13816;53.628;9.950;2023-03-16T00:26:00;8.27;;;3.37;;
26040;SDS011;13816;53.628;9.950;2023-03-16T00:28:29;9.70;;;3.40;;
26040;SDS011;13816;53.628;9.950;2023-03-16T00:31:03;14.03;;;3.50;;
26040;SDS011;13816;53.628;9.950;2023-03-16T00:33:30;9.57;;;3.80;;
26040;SDS011;13816;53.628;9.950;2023-03-16T00:36:00;15.43;;;3.17;;
26040;SDS011;13816;53.628;9.950;2023-03-16T00:38:27;11.50;;;3.73;;
26040;SDS011;13816;53.628;9.950;2023-03-16T00:40:53;9.90;;;3.43;;
26040;SDS011;13816;53.628;9.950;2023-03-16T00:43:20;12.93;;;3.00;;
26040;SDS011;13816;53.628;9.950;2023-03-16T00:45:46;8.37;;;3.83;;
26040;SDS011;13816;53.628;9.950;2023-03-16T00:48:12;8.57;;;3.57;;
26040;SDS011;13816;53.628;9.950;2023-03-16T00:50:38;12.17;;;3.83;;
26040;SDS011;13816;53.628;9.950;2023-03-16T00:55:36;10.07;;;2.80;;
26040;SDS011;13816;53.628;9.950;2023-03-16T00:58:03;15.00;;;3.50;;
26040;SDS011;13816;53.628;9.950;2023-03-16T01:00:29;10.67;;;3.53;;
26040;SDS011;13816;53.628;9.950;2023-03-16T01:02:55;5.50;;;3.07;;
26040;SDS011;13816;53.628;9.950;2023-03-16T01:05:22;8.03;;;2.90;;
26040;SDS011;13816;53.628;9.950;2023-03-16T01:07:50;5.83;;;3.20;;
26040;SDS011;13816;53.628;9.950;2023-03-16T01:10:16;11.67;;;3.30;;
26040;SDS011;13816;53.628;9.950;2023-03-16T01:12:42;11.33;;;3.53;;
26040;SDS011;13816;53.628;9.950;2023-03-16T01:15:09;14.77;;;4.13;;
26040;SDS011;13816;53.628;9.950;2023-03-16T01:17:35;10.47;;;3.40;;
26040;SDS011;13816;53.628;9.950;2023-03-16T01:20:01;16.23;;;4.10;;
26040;SDS011;13816;53.628;9.950;2023-03-16T01:22:32;10.13;;;3.27;;
26040;SDS011;13816;53.628;9.950;2023-03-16T01:25:00;9.53;;;3.20;;
26040;SDS011;13816;53.628;9.950;2023-03-16T01:27:26;8.73;;;3.17;;
26040;SDS011;13816;53.628;9.950;2023-03-16T01:29:52;7.63;;;2.93;;
26040;SDS011;13816;53.628;9.950;2023-03-16T01:32:18;13.70;;;3.60;;
26040;SDS011;13816;53.628;9.950;2023-03-16T01:34:45;6.87;;;2.97;;
26040;SDS011;13816;53.628;9.950;2023-03-16T01:37:11;11.20;;;2.60;;
26040;SDS011;13816;53.628;9.950;2023-03-16T01:39:45;6.97;;;2.87;;
26040;SDS011;13816;53.628;9.950;2023-03-16T01:42:12;6.13;;;2.60;;
26040;SDS011;13816;53.628;9.950;2023-03-16T01:44:58;11.40;;;3.20;;
26040;SDS011;13816;53.628;9.950;2023-03-16T01:47:33;15.90;;;3.67;;
26040;SDS011;13816;53.628;9.950;2023-03-16T01:50:03;11.83;;;3.23;;
26040;SDS011;13816;53.628;9.950;2023-03-16T01:52:33;9.20;;;3.47;;
26040;SDS011;13816;53.628;9.950;2023-03-16T01:55:03;6.40;;;2.83;;
26040;SDS011;13816;53.628;9.950;2023-03-16T01:57:33;8.23;;;3.20;;
26040;SDS011;13816;53.628;9.950;2023-03-16T02:00:04;8.97;;;2.87;;
26040;SDS011;13816;53.628;9.950;2023-03-16T02:03:14;6.40;;;3.40;;
26040;SDS011;13816;53.628;9.950;2023-03-16T02:06:05;12.47;;;4.10;;
26040;SDS011;13816;53.628;9.950;2023-03-16T02:08:34;7.17;;;3.17;;
26040;SDS011;13816;53.628;9.950;2023-03-16T02:11:02;7.23;;;3.60;;
26040;SDS011;13816;53.628;9.950;2023-03-16T02:13:39;14.23;;;2.87;;
26040;SDS011;13816;53.628;9.950;2023-03-16T02:16:07;11.10;;;3.10;;
26040;SDS011;13816;53.628;9.950;2023-03-16T02:18:34;14.30;;;3.83;;
26040;SDS011;13816;53.628;9.950;2023-03-16T02:21:06;5.30;;;2.83;;
26040;SDS011;13816;53.628;9.950;2023-03-16T02:23:36;6.93;;;3.10;;
26040;SDS011;13816;53.628;9.950;2023-03-16T02:26:03;15.87;;;3.60;;
26040;SDS011;13816;53.628;9.950;2023-03-16T02:28:35;8.57;;;2.90;;
26040;SDS011;13816;53.628;9.950;2023-03-16T02:31:03;7.53;;;3.37;;
26040;SDS011;13816;53.628;9.950;2023-03-16T02:33:29;13.23;;;3.43;;
26040;SDS011;13816;53.628;9.950;2023-03-16T02:35:57;11.57;;;3.67;;
26040;SDS011;13816;53.628;9.950;2023-03-16T02:38:23;11.10;;;4.10;;
26040;SDS011;13816;53.628;9.950;2023-03-16T02:41:01;6.87;;;2.93;;
26040;SDS011;13816;53.628;9.950;2023-03-16T02:43:34;9.33;;;3.63;;
26040;SDS011;13816;53.628;9.950;2023-03-16T02:46:08;7.23;;;3.57;;
26040;SDS011;13816;53.628;9.950;2023-03-16T02:51:11;12.63;;;3.87;;
26040;SDS011;13816;53.628;9.950;2023-03-16T02:53:37;8.47;;;3.77;;
26040;SDS011;13816;53.628;9.950;2023-03-16T02:56:03;7.57;;;3.50;;
26040;SDS011;13816;53.628;9.950;2023-03-16T02:58:32;10.20;;;3.23;;
26040;SDS011;13816;53.628;9.950;2023-03-16T03:01:02;9.90;;;4.63;;
26040;SDS011;13816;53.628;9.950;2023-03-16T03:03:28;9.63;;;3.90;;
26040;SDS011;13816;53.628;9.950;2023-03-16T03:05:54;12.43;;;4.57;;
26040;SDS011;13816;53.628;9.950;2023-03-16T03:08:20;15.10;;;4.17;;
26040;SDS011;13816;53.628;9.950;2023-03-16T03:10:48;15.93;;;4.83;;
26040;SDS011;13816;53.628;9.950;2023-03-16T03:13:14;14.33;;;4.90;;
26040;SDS011;13816;53.628;9.950;2023-03-16T03:15:40;12.03;;;4.37;;
26040;SDS011;13816;53.628;9.950;2023-03-16T03:18:09;7.40;;;4.17;;
26040;SDS011;13816;53.628;9.950;2023-03-16T03:20:35;7.53;;;4.47;;
26040;SDS011;13816;53.628;9.950;2023-03-16T03:23:01;11.10;;;4.00;;
26040;SDS011;13816;53.628;9.950;2023-03-16T03:25:27;11.73;;;5.00;;
26040;SDS011;13816;53.628;9.950;2023-03-16T03:27:54;7.43;;;4.23;;
26040;SDS011;13816;53.628;9.950;2023-03-16T03:30:22;11.00;;;4.37;;
26040;SDS011;13816;53.628;9.950;2023-03-16T03:32:48;8.10;;;4.80;;
26040;SDS011;13816;53.628;9.950;2023-03-16T03:35:17;9.60;;;4.50;;
26040;SDS011;13816;53.628;9.950;2023-03-16T03:37:44;7.90;;;4.90;;
26040;SDS011;13816;53.628;9.950;2023-03-16T03:40:12;13.00;;;5.30;;
26040;SDS011;13816;53.628;9.950;2023-03-16T03:42:40;12.10;;;4.70;;
26040;SDS011;13816;53.628;9.950;2023-03-16T03:45:07;11.57;;;4.47;;
26040;SDS011;13816;53.628;9.950;2023-03-16T03:47:35;11.13;;;4.43;;
26040;SDS011;13816;53.628;9.950;2023-03-16T03:50:03;13.37;;;4.50;;
26040;SDS011;13816;53.628;9.950;2023-03-16T03:52:33;10.23;;;5.60;;
26040;SDS011;13816;53.628;9.950;2023-03-16T03:54:59;10.00;;;4.50;;
26040;SDS011;13816;53.628;9.950;2023-03-16T03:57:25;15.93;;;6.30;;
26040;SDS011;13816;53.628;9.950;2023-03-16T03:59:51;15.47;;;5.43;;
26040;SDS011;13816;53.628;9.950;2023-03-16T04:02:20;14.70;;;5.27;;
26040;SDS011;13816;53.628;9.950;2023-03-16T04:04:50;11.67;;;4.80;;
26040;SDS011;13816;53.628;9.950;2023-03-16T04:07:16;10.33;;;4.63;;
26040;SDS011;13816;53.628;9.950;2023-03-16T04:09:44;13.90;;;4.70;;
26040;SDS011;13816;53.628;9.950;2023-03-16T04:12:20;14.13;;;4.80;;
26040;SDS011;13816;53.628;9.950;2023-03-16T04:14:47;9.17;;;4.93;;
26040;SDS011;13816;53.628;9.950;2023-03-16T04:17:15;13.40;;;4.90;;
26040;SDS011;13816;53.628;9.950;2023-03-16T04:19:41;5.80;;;4.30;;
26040;SDS011;13816;53.628;9.950;2023-03-16T04:22:12;10.77;;;5.30;;
26040;SDS011;13816;53.628;9.950;2023-03-16T04:24:38;10.23;;;4.13;;
26040;SDS011;13816;53.628;9.950;2023-03-16T04:27:07;11.83;;;4.70;;
26040;SDS011;13816;53.628;9.950;2023-03-16T04:29:36;8.60;;;4.37;;
26040;SDS011;13816;53.628;9.950;2023-03-16T04:32:04;8.43;;;4.10;;
26040;SDS011;13816;53.628;9.950;2023-03-16T04:34:31;8.03;;;4.00;;
26040;SDS011;13816;53.628;9.950;2023-03-16T04:37:02;9.03;;;4.00;;
26040;SDS011;13816;53.628;9.950;2023-03-16T04:39:31;4.70;;;3.20;;
26040;SDS011;13816;53.628;9.950;2023-03-16T04:41:58;11.90;;;4.50;;
26040;SDS011;13816;53.628;9.950;2023-03-16T04:44:26;11.90;;;4.30;;
26040;SDS011;13816;53.628;9.950;2023-03-16T04:46:52;11.87;;;4.47;;
26040;SDS011;13816;53.628;9.950;2023-03-16T04:49:20;16.70;;;4.70;;
26040;SDS011;13816;53.628;9.950;2023-03-16T04:51:46;10.90;;;4.43;;
26040;SDS011;13816;53.628;9.950;2023-03-16T04:54:16;7.63;;;4.40;;
26040;SDS011;13816;53.628;9.950;2023-03-16T04:56:42;5.33;;;3.80;;
26040;SDS011;13816;53.628;9.950;2023-03-16T04:59:22;11.03;;;4.30;;
26040;SDS011;13816;53.628;9.950;2023-03-16T05:01:59;9.90;;;3.90;;
26040;SDS011;13816;53.628;9.950;2023-03-16T05:04:26;7.80;;;3.93;;
26040;SDS011;13816;53.628;9.950;2023-03-16T05:06:52;4.30;;;3.47;;
26040;SDS011;13816;53.628;9.950;2023-03-16T05:09:22;9.50;;;3.93;;
26040;SDS011;13816;53.628;9.950;2023-03-16T05:11:50;15.93;;;4.50;;
26040;SDS011;13816;53.628;9.950;2023-03-16T05:14:16;7.43;;;4.03;;
26040;SDS011;13816;53.628;9.950;2023-03-16T05:16:58;8.60;;;4.00;;
26040;SDS011;13816;53.628;9.950;2023-03-16T05:19:28;9.53;;;3.83;;
26040;SDS011;13816;53.628;9.950;2023-03-16T05:21:54;4.90;;;3.77;;
26040;SDS011;13816;53.628;9.950;2023-03-16T05:24:21;8.23;;;3.67;;
26040;SDS011;13816;53.628;9.950;2023-03-16T05:26:48;12.10;;;5.13;;
26040;SDS011;13816;53.628;9.950;2023-03-16T05:29:16;6.67;;;4.13;;
26040;SDS011;13816;53.628;9.950;2023-03-16T05:31:44;10.57;;;3.73;;
26040;SDS011;13816;53.628;9.950;2023-03-16T05:34:14;14.67;;;4.33;;
26040;SDS011;13816;53.628;9.950;2023-03-16T05:36:40;6.33;;;3.60;;
26040;SDS011;13816;53.628;9.950;2023-03-16T05:39:11;8.37;;;3.57;;
26040;SDS011;13816;53.628;9.950;2023-03-16T05:41:42;8.33;;;3.43;;
26040;SDS011;13816;53.628;9.950;2023-03-16T05:44:11;22.90;;;4.10;;
26040;SDS011;13816;53.628;9.950;2023-03-16T05:46:52;15.73;;;3.10;;
26040;SDS011;13816;53.628;9.950;2023-03-16T05:49:19;6.90;;;3.43;;
26040;SDS011;13816;53.628;9.950;2023-03-16T05:51:45;9.40;;;3.37;;
26040;SDS011;13816;53.628;9.950;2023-03-16T05:54:13;4.80;;;3.20;;
26040;SDS011;13816;53.628;9.950;2023-03-16T05:56:43;17.03;;;3.87;;
26040;SDS011;13816;53.628;9.950;2023-03-16T05:59:09;7.03;;;3.00;;
26040;SDS011;13816;53.628;9.950;2023-03-16T06:01:35;6.73;;;3.30;;
26040;SDS011;13816;53.628;9.950;2023-03-16T06:04:03;4.60;;;2.80;;
26040;SDS011;13816;53.628;9.950;2023-03-16T06:06:33;11.70;;;3.03;;
26040;SDS011;13816;53.628;9.950;2023-03-16T06:09:23;6.80;;;3.10;;
26040;SDS011;13816;53.628;9.950;2023-03-16T06:11:49;6.03;;;3.23;;
26040;SDS011;13816;53.628;9.950;2023-03-16T06:14:16;10.03;;;3.00;;
26040;SDS011;13816;53.628;9.950;2023-03-16T06:16:43;7.23;;;2.73;;
26040;SDS011;13816;53.628;9.950;2023-03-16T06:19:10;7.00;;;3.53;;
26040;SDS011;13816;53.628;9.950;2023-03-16T06:21:37;18.13;;;3.93;;
26040;SDS011;13816;53.628;9.950;2023-03-16T06:24:07;6.73;;;2.93;;
26040;SDS011;13816;53.628;9.950;2023-03-16T06:26:34;4.60;;;2.60;;
26040;SDS011;13816;53.628;9.950;2023-03-16T06:29:02;9.37;;;3.57;;
26040;SDS011;13816;53.628;9.950;2023-03-16T06:31:31;10.50;;;4.40;;
26040;SDS011;13816;53.628;9.950;2023-03-16T06:33:59;11.67;;;3.50;;
26040;SDS011;13816;53.628;9.950;2023-03-16T06:36:26;5.47;;;3.63;;
26040;SDS011;13816;53.628;9.950;2023-03-16T06:38:55;9.83;;;3.70;;
26040;SDS011;13816;53.628;9.950;2023-03-16T06:41:29;6.30;;;3.53;;
26040;SDS011;13816;53.628;9.950;2023-03-16T06:43:56;4.97;;;3.73;;
26040;SDS011;13816;53.628;9.950;2023-03-16T06:46:22;5.73;;;3.87;;
26040;SDS011;13816;53.628;9.950;2023-03-16T06:48:49;13.10;;;3.83;;
26040;SDS011;13816;53.628;9.950;2023-03-16T06:51:15;9.20;;;3.60;;
26040;SDS011;13816;53.628;9.950;2023-03-16T06:56:23;5.67;;;2.90;;
26040;SDS011;13816;53.628;9.950;2023-03-16T06:58:54;10.40;;;5.07;;
26040;SDS011;13816;53.628;9.950;2023-03-16T07:01:38;6.57;;;3.53;;
26040;SDS011;13816;53.628;9.950;2023-03-16T08:31:20;12.13;;;3.97;;
26040;SDS011;13816;53.628;9.950;2023-03-16T08:34:21;5.77;;;3.17;;
26040;SDS011;13816;53.628;9.950;2023-03-16T12:55:07;5.53;;;1.17;;
26040;SDS011;13816;53.628;9.950;2023-03-16T12:57:38;1.93;;;0.90;;
26040;SDS011;13816;53.628;9.950;2023-03-16T13:00:05;1.97;;;1.10;;
26040;SDS011;13816;53.628;9.950;2023-03-16T13:02:35;1.77;;;0.87;;
26040;SDS011;13816;53.628;9.950;2023-03-16T13:05:07;2.67;;;1.13;;
26040;SDS011;13816;53.628;9.950;2023-03-16T13:07:33;1.87;;;0.93;;
26040;SDS011;13816;53.628;9.950;2023-03-16T13:12:34;3.13;;;1.13;;
26040;SDS011;13816;53.628;9.950;2023-03-16T13:18:01;3.60;;;1.13;;
26040;SDS011;13816;53.628;9.950;2023-03-16T13:20:28;2.07;;;1.10;;
26040;SDS011;13816;53.628;9.950;2023-03-16T13:23:06;3.80;;;1.30;;
26040;SDS011;13816;53.628;9.950;2023-03-16T13:25:38;7.67;;;1.07;;
26040;SDS011;13816;53.628;9.950;2023-03-16T13:28:07;2.10;;;1.47;;
26040;SDS011;13816;53.628;9.950;2023-03-16T13:30:36;1.77;;;1.13;;
26040;SDS011;13816;53.628;9.950;2023-03-16T13:35:46;4.10;;;1.30;;
26040;SDS011;13816;53.628;9.950;2023-03-16T13:38:13;4.53;;;1.47;;
26040;SDS011;13816;53.628;9.950;2023-03-16T13:40:44;2.70;;;1.70;;
26040;SDS011;13816;53.628;9.950;2023-03-16T13:43:13;3.17;;;1.40;;
26040;SDS011;13816;53.628;9.950;2023-03-16T13:45:39;2.67;;;0.90;;
26040;SDS011;13816;53.628;9.950;2023-03-16T13:48:10;5.90;;;1.37;;
26040;SDS011;13816;53.628;9.950;2023-03-16T13:50:36;5.20;;;1.50;;
26040;SDS011;13816;53.628;9.950;2023-03-16T13:53:09;10.10;;;1.23;;
26040;SDS011;13816;53.628;9.950;2023-03-16T13:55:39;4.40;;;1.70;;
26040;SDS011;13816;53.628;9.950;2023-03-16T13:58:12;7.07;;;1.37;;
26040;SDS011;13816;53.628;9.950;2023-03-16T14:00:44;1.77;;;1.03;;
26040;SDS011;13816;53.628;9.950;2023-03-16T14:03:18;3.60;;;1.10;;
26040;SDS011;13816;53.628;9.950;2023-03-16T14:05:46;3.67;;;1.30;;
26040;SDS011;13816;53.628;9.950;2023-03-16T14:08:14;2.50;;;1.27;;
26040;SDS011;13816;53.628;9.950;2023-03-16T14:10:41;4.80;;;1.20;;
26040;SDS011;13816;53.628;9.950;2023-03-16T14:15:35;3.17;;;1.20;;
26040;SDS011;13816;53.628;9.950;2023-03-16T14:18:15;3.70;;;1.53;;
26040;SDS011;13816;53.628;9.950;2023-03-16T14:20:45;3.43;;;1.17;;
26040;SDS011;13816;53.628;9.950;2023-03-16T14:23:21;2.53;;;1.30;;
26040;SDS011;13816;53.628;9.950;2023-03-16T14:25:48;3.60;;;1.40;;
26040;SDS011;13816;53.628;9.950;2023-03-16T14:28:15;3.93;;;1.07;;
26040;SDS011;13816;53.628;9.950;2023-03-16T14:30:49;2.67;;;1.30;;
26040;SDS011;13816;53.628;9.950;2023-03-16T14:33:34;3.27;;;1.30;;
26040;SDS011;13816;53.628;9.950;2023-03-16T14:36:11;1.93;;;1.10;;
26040;SDS011;13816;53.628;9.950;2023-03-16T14:38:38;6.27;;;1.20;;
26040;SDS011;13816;53.628;9.950;2023-03-16T14:43:45;4.53;;;1.40;;
26040;SDS011;13816;53.628;9.950;2023-03-16T14:46:13;5.73;;;1.20;;
26040;SDS011;13816;53.628;9.950;2023-03-16T14:48:41;2.50;;;1.13;;
26040;SDS011;13816;53.628;9.950;2023-03-16T14:51:09;8.73;;;1.27;;
26040;SDS011;13816;53.628;9.950;2023-03-16T14:53:37;3.87;;;1.60;;
26040;SDS011;13816;53.628;9.950;2023-03-16T14:56:08;10.93;;;1.77;;
26040;SDS011;13816;53.628;9.950;2023-03-16T14:58:35;2.40;;;1.00;;
26040;SDS011;13816;53.628;9.950;2023-03-16T15:01:01;2.40;;;0.97;;
26040;SDS011;13816;53.628;9.950;2023-03-16T15:03:31;2.20;;;1.47;;
26040;SDS011;13816;53.628;9.950;2023-03-16T15:05:58;8.10;;;1.57;;
26040;SDS011;13816;53.628;9.950;2023-03-16T15:08:29;2.23;;;1.10;;
26040;SDS011;13816;53.628;9.950;2023-03-16T15:10:57;2.43;;;1.07;;
26040;SDS011;13816;53.628;9.950;2023-03-16T15:13:25;3.40;;;1.20;;
26040;SDS011;13816;53.628;9.950;2023-03-16T15:16:08;2.20;;;1.10;;
26040;SDS011;13816;53.628;9.950;2023-03-16T15:18:35;2.83;;;1.00;;
26040;SDS011;13816;53.628;9.950;2023-03-16T15:21:03;2.70;;;1.23;;
26040;SDS011;13816;53.628;9.950;2023-03-16T15:23:36;1.70;;;1.10;;
26040;SDS011;13816;53.628;9.950;2023-03-16T15:26:02;9.43;;;1.30;;
26040;SDS011;13816;53.628;9.950;2023-03-16T15:28:31;6.27;;;1.03;;
26040;SDS011;13816;53.628;9.950;2023-03-16T15:30:59;2.43;;;1.13;;
26040;SDS011;13816;53.628;9.950;2023-03-16T15:33:26;2.20;;;0.97;;
26040;SDS011;13816;53.628;9.950;2023-03-16T15:35:53;5.43;;;1.33;;
26040;SDS011;13816;53.628;9.950;2023-03-16T15:40:46;3.07;;;1.10;;
26040;SDS011;13816;53.628;9.950;2023-03-16T15:43:15;4.20;;;1.10;;
26040;SDS011;13816;53.628;9.950;2023-03-16T15:45:42;3.27;;;1.17;;
26040;SDS011;13816;53.628;9.950;2023-03-16T15:48:09;11.70;;;1.20;;
26040;SDS011;13816;53.628;9.950;2023-03-16T15:50:36;4.37;;;1.30;;
26040;SDS011;13816;53.628;9.950;2023-03-16T15:53:13;2.73;;;1.30;;
26040;SDS011;13816;53.628;9.950;2023-03-16T15:55:40;1.30;;;0.77;;
26040;SDS011;13816;53.628;9.950;2023-03-16T15:58:29;4.10;;;1.10;;
26040;SDS011;13816;53.628;9.950;2023-03-16T16:00:54;2.33;;;1.00;;
26040;SDS011;13816;53.628;9.950;2023-03-16T16:03:22;2.00;;;1.27;;
26040;SDS011;13816;53.628;9.950;2023-03-16T16:05:48;2.57;;;1.23;;
26040;SDS011;13816;53.628;9.950;2023-03-16T16:08:14;5.30;;;1.80;;
26040;SDS011;13816;53.628;9.950;2023-03-16T16:10:41;5.13;;;1.07;;
26040;SDS011;13816;53.628;9.950;2023-03-16T16:13:10;2.40;;;1.63;;
26040;SDS011;13816;53.628;9.950;2023-03-16T16:15:38;2.57;;;1.07;;
26040;SDS011;13816;53.628;9.950;2023-03-16T16:20:56;4.67;;;1.60;;
26040;SDS011;13816;53.628;9.950;2023-03-16T16:23:22;2.17;;;0.90;;
26040;SDS011;13816;53.628;9.950;2023-03-16T16:25:50;1.17;;;0.87;;
26040;SDS011;13816;53.628;9.950;2023-03-16T16:28:20;1.50;;;1.00;;
26040;SDS011;13816;53.628;9.950;2023-03-16T16:30:47;2.90;;;1.23;;
26040;SDS011;13816;53.628;9.950;2023-03-16T16:33:27;3.63;;;1.40;;
26040;SDS011;13816;53.628;9.950;2023-03-16T16:35:54;4.60;;;0.83;;
26040;SDS011;13816;53.628;9.950;2023-03-16T16:38:22;4.10;;;1.30;;
26040;SDS011;13816;53.628;9.950;2023-03-16T16:40:49;4.45;;;1.20;;
26040;SDS011;13816;53.628;9.950;2023-03-16T16:43:28;2.93;;;1.10;;
26040;SDS011;13816;53.628;9.950;2023-03-16T16:45:55;2.30;;;1.00;;
26040;SDS011;13816;53.628;9.950;2023-03-16T16:50:54;4.60;;;1.47;;
26040;SDS011;13816;53.628;9.950;2023-03-16T16:53:20;2.77;;;1.10;;
26040;SDS011;13816;53.628;9.950;2023-03-16T16:55:47;2.50;;;1.20;;
26040;SDS011;13816;53.628;9.950;2023-03-16T16:58:13;3.80;;;1.20;;
26040;SDS011;13816;53.628;9.950;2023-03-16T17:00:40;1.03;;;0.80;;
26040;SDS011;13816;53.628;9.950;2023-03-16T17:03:24;2.40;;;1.10;;
26040;SDS011;13816;53.628;9.950;2023-03-16T17:05:51;5.20;;;1.03;;
26040;SDS011;13816;53.628;9.950;2023-03-16T17:08:18;3.57;;;1.13;;
26040;SDS011;13816;53.628;9.950;2023-03-16T17:10:45;6.60;;;1.30;;
26040;SDS011;13816;53.628;9.950;2023-03-16T17:13:35;4.80;;;1.43;;
26040;SDS011;13816;53.628;9.950;2023-03-16T17:15:58;3.23;;;1.30;;
26040;SDS011;13816;53.628;9.950;2023-03-16T17:18:24;3.23;;;1.20;;
26040;SDS011;13816;53.628;9.950;2023-03-16T17:20:51;1.60;;;1.33;;
26040;SDS011;13816;53.628;9.950;2023-03-16T17:23:27;4.53;;;0.90;;
26040;SDS011;13816;53.628;9.950;2023-03-16T17:25:55;2.60;;;1.13;;
26040;SDS011;13816;53.628;9.950;2023-03-16T17:28:23;3.93;;;1.60;;
26040;SDS011;13816;53.628;9.950;2023-03-16T17:30:50;2.03;;;1.60;;
26040;SDS011;13816;53.628;9.950;2023-03-16T17:33:16;2.70;;;1.50;;
26040;SDS011;13816;53.628;9.950;2023-03-16T17:35:44;1.70;;;1.00;;
26040;SDS011;13816;53.628;9.950;2023-03-16T17:38:17;4.73;;;1.50;;
26040;SDS011;13816;53.628;9.950;2023-03-16T17:40:43;2.67;;;1.40;;
26040;SDS011;13816;53.628;9.950;2023-03-16T17:43:13;3.30;;;2.03;;
26040;SDS011;13816;53.628;9.950;2023-03-16T17:45:40;2.10;;;1.47;;
26040;SDS011;13816;53.628;9.950;2023-03-16T17:48:17;2.10;;;1.20;;
26040;SDS011;13816;53.628;9.950;2023-03-16T17:50:44;1.97;;;1.50;;
26040;SDS011;13816;53.628;9.950;2023-03-16T17:53:14;2.57;;;1.30;;
26040;SDS011;13816;53.628;9.950;2023-03-16T17:55:41;4.53;;;1.53;;
26040;SDS011;13816;53.628;9.950;2023-03-16T17:58:49;2.83;;;1.37;;
26040;SDS011;13816;53.628;9.950;2023-03-16T18:00:56;3.57;;;1.60;;
26040;SDS011;13816;53.628;9.950;2023-03-16T18:03:23;8.60;;;1.80;;
26040;SDS011;13816;53.628;9.950;2023-03-16T18:05:50;2.40;;;1.33;;
26040;SDS011;13816;53.628;9.950;2023-03-16T18:08:18;4.73;;;1.63;;
26040;SDS011;13816;53.628;9.950;2023-03-16T18:10:44;2.40;;;1.50;;
26040;SDS011;13816;53.628;9.950;2023-03-16T18:13:15;7.60;;;2.20;;
26040;SDS011;13816;53.628;9.950;2023-03-16T18:15:42;2.63;;;1.40;;
26040;SDS011;13816;53.628;9.950;2023-03-16T18:18:09;2.10;;;1.57;;
26040;SDS011;13816;53.628;9.950;2023-03-16T18:20:40;1.80;;;1.50;;
26040;SDS011;13816;53.628;9.950;2023-03-16T18:26:02;1.67;;;1.30;;
26040;SDS011;13816;53.628;9.950;2023-03-16T18:28:30;6.03;;;1.97;;
26040;SDS011;13816;53.628;9.950;2023-03-16T18:30:57;7.10;;;2.13;;
26040;SDS011;13816;53.628;9.950;2023-03-16T18:33:24;3.27;;;1.63;;
26040;SDS011;13816;53.628;9.950;2023-03-16T18:35:52;4.67;;;1.90;;
26040;SDS011;13816;53.628;9.950;2023-03-16T18:40:48;4.43;;;1.67;;
26040;SDS011;13816;53.628;9.950;2023-03-16T18:43:14;3.77;;;1.80;;
26040;SDS011;13816;53.628;9.950;2023-03-16T18:45:42;2.30;;;1.83;;
26040;SDS011;13816;53.628;9.950;2023-03-16T18:48:11;4.30;;;2.37;;
26040;SDS011;13816;53.628;9.950;2023-03-16T18:50:42;5.00;;;1.90;;
26040;SDS011;13816;53.628;9.950;2023-03-16T18:53:09;4.60;;;1.63;;
26040;SDS011;13816;53.628;9.950;2023-03-16T18:55:41;4.63;;;1.90;;
26040;SDS011;13816;53.628;9.950;2023-03-16T18:58:16;3.63;;;1.90;;
26040;SDS011;13816;53.628;9.950;2023-03-16T19:00:47;4.33;;;1.87;;
26040;SDS011;13816;53.628;9.950;2023-03-16T19:03:26;2.80;;;1.83;;
26040;SDS011;13816;53.628;9.950;2023-03-16T19:09:33;4.90;;;1.70;;
26040;SDS011;13816;53.628;9.950;2023-03-16T19:19:59;2.47;;;2.00;;
26040;SDS011;13816;53.628;9.950;2023-03-16T19:27:21;3.60;;;2.30;;
26040;SDS011;13816;53.628;9.950;2023-03-16T19:45:24;5.90;;;2.13;;
26040;SDS011;13816;53.628;9.950;2023-03-16T20:11:40;3.13;;;2.13;;
26040;SDS011;13816;53.628;9.950;2023-03-16T20:30:38;5.13;;;2.53;;
26040;SDS011;13816;53.628;9.950;2023-03-16T21:42:20;3.93;;;2.50;;
26040;SDS011;13816;53.628;9.950;2023-03-16T21:45:06;6.50;;;3.30;;
26040;SDS011;13816;53.628;9.950;2023-03-16T21:48:15;8.00;;;2.40;;
26040;SDS011;13816;53.628;9.950;2023-03-16T23:48:26;4.63;;;2.30;;
26040;SDS011;13816;53.628;9.950;2023-03-16T23:55:05;10.07;;;2.30;;
26040;SDS011;13816;53.628;9.950;2023-03-16T23:57:51;3.03;;;2.00;;
